sensor_id;sensor_type;location;lat;lon;timestamp;pressure;altitude;pressure_sealevel;temperature;humidity
41947;BME280;27638;42.184;24.848;2022-11-15T00:00:27;100622.84;;;10.38;90.09
41947;BME280;27638;42.184;24.848;2022-11-15T00:02:53;100625.09;;;10.43;89.85
41947;BME280;27638;42.184;24.848;2022-11-15T00:05:19;100620.78;;;10.42;89.68
41947;BME280;27638;42.184;24.848;2022-11-15T00:07:44;100621.34;;;10.45;89.28
41947;BME280;27638;42.184;24.848;2022-11-15T00:10:10;100619.50;;;10.27;89.68
41947;BME280;27638;42.184;24.848;2022-11-15T00:12:35;100621.16;;;10.28;90.64
41947;BME280;27638;42.184;24.848;2022-11-15T00:15:00;100624.03;;;10.05;92.15
41947;BME280;27638;42.184;24.848;2022-11-15T00:17:26;100613.22;;;9.58;94.43
41947;BME280;27638;42.184;24.848;2022-11-15T00:19:51;100605.69;;;9.23;95.71
41947;BME280;27638;42.184;24.848;2022-11-15T00:22:17;100602.91;;;9.25;96.96
41947;BME280;27638;42.184;24.848;2022-11-15T00:24:42;100614.84;;;9.19;97.93
41947;BME280;27638;42.184;24.848;2022-11-15T00:27:08;100604.81;;;9.13;98.01
41947;BME280;27638;42.184;24.848;2022-11-15T00:29:33;100606.47;;;9.14;98.22
41947;BME280;27638;42.184;24.848;2022-11-15T00:31:58;100594.28;;;9.23;99.09
41947;BME280;27638;42.184;24.848;2022-11-15T00:34:24;100602.47;;;9.50;96.89
41947;BME280;27638;42.184;24.848;2022-11-15T00:36:49;100592.75;;;9.51;96.67
41947;BME280;27638;42.184;24.848;2022-11-15T00:39:15;100594.56;;;9.60;96.80
41947;BME280;27638;42.184;24.848;2022-11-15T00:41:40;100597.41;;;9.78;95.47
41947;BME280;27638;42.184;24.848;2022-11-15T00:44:06;100596.16;;;9.91;95.41
41947;BME280;27638;42.184;24.848;2022-11-15T00:46:31;100589.78;;;10.04;94.35
41947;BME280;27638;42.184;24.848;2022-11-15T00:48:57;100592.28;;;10.05;93.42
41947;BME280;27638;42.184;24.848;2022-11-15T00:51:22;100589.09;;;10.02;93.12
41947;BME280;27638;42.184;24.848;2022-11-15T00:53:47;100585.06;;;10.07;92.68
41947;BME280;27638;42.184;24.848;2022-11-15T00:56:13;100591.88;;;10.19;91.99
41947;BME280;27638;42.184;24.848;2022-11-15T00:58:38;100593.88;;;10.27;91.36
41947;BME280;27638;42.184;24.848;2022-11-15T01:01:12;100589.16;;;10.40;90.41
41947;BME280;27638;42.184;24.848;2022-11-15T01:03:38;100587.47;;;10.49;90.56
41947;BME280;27638;42.184;24.848;2022-11-15T01:06:04;100585.09;;;10.46;89.98
41947;BME280;27638;42.184;24.848;2022-11-15T01:08:30;100584.97;;;10.47;90.03
41947;BME280;27638;42.184;24.848;2022-11-15T01:11:03;100591.50;;;10.53;89.95
41947;BME280;27638;42.184;24.848;2022-11-15T01:13:31;100561.81;;;10.40;90.15
41947;BME280;27638;42.184;24.848;2022-11-15T01:15:57;100583.84;;;10.50;90.16
41947;BME280;27638;42.184;24.848;2022-11-15T01:18:23;100575.63;;;10.53;88.77
41947;BME280;27638;42.184;24.848;2022-11-15T01:20:48;100585.25;;;10.54;89.23
41947;BME280;27638;42.184;24.848;2022-11-15T01:23:14;100579.53;;;10.59;89.31
41947;BME280;27638;42.184;24.848;2022-11-15T01:25:39;100580.91;;;10.63;89.73
41947;BME280;27638;42.184;24.848;2022-11-15T01:28:05;100575.31;;;10.66;89.74
41947;BME280;27638;42.184;24.848;2022-11-15T01:30:30;100573.78;;;10.63;90.32
41947;BME280;27638;42.184;24.848;2022-11-15T01:32:56;100580.34;;;10.59;91.28
41947;BME280;27638;42.184;24.848;2022-11-15T01:35:21;100579.38;;;10.60;90.43
41947;BME280;27638;42.184;24.848;2022-11-15T01:37:47;100580.50;;;10.58;91.23
41947;BME280;27638;42.184;24.848;2022-11-15T01:40:12;100562.25;;;10.54;90.53
41947;BME280;27638;42.184;24.848;2022-11-15T01:42:38;100573.38;;;10.58;91.05
41947;BME280;27638;42.184;24.848;2022-11-15T01:45:03;100566.97;;;10.61;91.18
41947;BME280;27638;42.184;24.848;2022-11-15T01:47:34;100568.91;;;10.68;90.58
41947;BME280;27638;42.184;24.848;2022-11-15T01:50:04;100566.13;;;10.60;90.04
41947;BME280;27638;42.184;24.848;2022-11-15T01:52:33;100562.66;;;10.50;90.50
41947;BME280;27638;42.184;24.848;2022-11-15T01:57:25;100570.03;;;10.37;92.07
41947;BME280;27638;42.184;24.848;2022-11-15T01:59:50;100560.41;;;10.36;92.23
41947;BME280;27638;42.184;24.848;2022-11-15T02:02:16;100567.41;;;10.27;92.79
41947;BME280;27638;42.184;24.848;2022-11-15T02:04:46;100559.16;;;10.30;93.16
41947;BME280;27638;42.184;24.848;2022-11-15T02:07:14;100563.06;;;10.36;92.38
41947;BME280;27638;42.184;24.848;2022-11-15T02:09:41;100561.13;;;10.38;93.01
41947;BME280;27638;42.184;24.848;2022-11-15T02:12:08;100563.50;;;10.50;92.28
41947;BME280;27638;42.184;24.848;2022-11-15T02:14:36;100560.56;;;10.53;91.95
41947;BME280;27638;42.184;24.848;2022-11-15T02:19:49;100557.34;;;10.60;91.85
41947;BME280;27638;42.184;24.848;2022-11-15T02:22:30;100556.34;;;10.70;91.34
41947;BME280;27638;42.184;24.848;2022-11-15T02:33:31;100559.97;;;10.69;92.02
41947;BME280;27638;42.184;24.848;2022-11-15T02:36:01;100552.31;;;10.66;91.64
41947;BME280;27638;42.184;24.848;2022-11-15T02:38:40;100557.34;;;10.69;92.04
41947;BME280;27638;42.184;24.848;2022-11-15T02:41:13;100552.31;;;10.66;92.17
41947;BME280;27638;42.184;24.848;2022-11-15T02:46:42;100537.41;;;10.65;91.16
41947;BME280;27638;42.184;24.848;2022-11-15T02:49:32;100554.09;;;10.75;91.58
41947;BME280;27638;42.184;24.848;2022-11-15T02:51:57;100540.56;;;10.78;90.69
41947;BME280;27638;42.184;24.848;2022-11-15T02:54:26;100542.38;;;10.78;90.47
41947;BME280;27638;42.184;24.848;2022-11-15T02:57:04;100549.25;;;10.71;91.61
41947;BME280;27638;42.184;24.848;2022-11-15T03:04:56;100543.22;;;10.78;91.61
41947;BME280;27638;42.184;24.848;2022-11-15T03:10:36;100535.44;;;10.77;91.69
41947;BME280;27638;42.184;24.848;2022-11-15T03:13:31;100534.59;;;10.76;91.10
41947;BME280;27638;42.184;24.848;2022-11-15T03:16:09;100528.19;;;10.69;91.14
41947;BME280;27638;42.184;24.848;2022-11-15T03:18:47;100537.00;;;10.60;91.52
41947;BME280;27638;42.184;24.848;2022-11-15T03:21:15;100531.81;;;10.68;90.91
41947;BME280;27638;42.184;24.848;2022-11-15T03:23:43;100535.19;;;10.61;90.81
41947;BME280;27638;42.184;24.848;2022-11-15T03:26:12;100542.16;;;10.52;91.11
41947;BME280;27638;42.184;24.848;2022-11-15T03:31:14;100541.31;;;10.61;90.18
41947;BME280;27638;42.184;24.848;2022-11-15T03:34:04;100541.59;;;10.58;90.03
41947;BME280;27638;42.184;24.848;2022-11-15T03:36:33;100534.66;;;10.38;89.30
41947;BME280;27638;42.184;24.848;2022-11-15T03:39:02;100534.66;;;10.47;88.76
41947;BME280;27638;42.184;24.848;2022-11-15T03:41:43;100522.41;;;10.46;88.87
41947;BME280;27638;42.184;24.848;2022-11-15T03:44:19;100527.69;;;10.37;88.84
41947;BME280;27638;42.184;24.848;2022-11-15T03:46:55;100530.34;;;10.46;88.81
41947;BME280;27638;42.184;24.848;2022-11-15T03:49:27;100517.09;;;10.37;88.45
41947;BME280;27638;42.184;24.848;2022-11-15T03:51:57;100511.66;;;10.29;88.20
41947;BME280;27638;42.184;24.848;2022-11-15T03:54:23;100513.47;;;10.18;89.39
41947;BME280;27638;42.184;24.848;2022-11-15T03:56:48;100514.03;;;10.22;89.16
41947;BME280;27638;42.184;24.848;2022-11-15T03:59:13;100496.06;;;10.26;88.21
41947;BME280;27638;42.184;24.848;2022-11-15T04:01:39;100514.16;;;10.30;87.86
41947;BME280;27638;42.184;24.848;2022-11-15T04:04:04;100503.59;;;10.20;87.85
41947;BME280;27638;42.184;24.848;2022-11-15T04:06:30;100510.25;;;9.96;88.72
41947;BME280;27638;42.184;24.848;2022-11-15T04:08:55;100508.88;;;10.01;88.30
41947;BME280;27638;42.184;24.848;2022-11-15T04:11:20;100502.75;;;10.01;88.05
41947;BME280;27638;42.184;24.848;2022-11-15T04:13:46;100491.47;;;10.08;87.70
41947;BME280;27638;42.184;24.848;2022-11-15T04:16:11;100492.03;;;10.02;87.61
41947;BME280;27638;42.184;24.848;2022-11-15T04:18:37;100488.25;;;9.95;87.79
41947;BME280;27638;42.184;24.848;2022-11-15T04:21:02;100498.28;;;10.01;87.87
41947;BME280;27638;42.184;24.848;2022-11-15T04:23:46;100486.88;;;9.91;88.08
41947;BME280;27638;42.184;24.848;2022-11-15T04:26:30;100493.97;;;10.10;87.54
41947;BME280;27638;42.184;24.848;2022-11-15T04:28:56;100491.75;;;10.05;87.71
41947;BME280;27638;42.184;24.848;2022-11-15T04:31:40;100490.63;;;9.98;87.01
41947;BME280;27638;42.184;24.848;2022-11-15T04:34:06;100488.53;;;9.92;87.51
41947;BME280;27638;42.184;24.848;2022-11-15T04:36:31;100483.13;;;9.74;87.68
41947;BME280;27638;42.184;24.848;2022-11-15T04:39:15;100491.31;;;10.00;86.50
41947;BME280;27638;42.184;24.848;2022-11-15T04:41:40;100495.78;;;10.00;87.38
41947;BME280;27638;42.184;24.848;2022-11-15T04:44:06;100489.50;;;10.01;87.05
41947;BME280;27638;42.184;24.848;2022-11-15T04:46:32;100492.72;;;10.14;86.48
41947;BME280;27638;42.184;24.848;2022-11-15T04:48:57;100498.84;;;9.85;87.08
41947;BME280;27638;42.184;24.848;2022-11-15T04:51:23;100486.16;;;10.08;86.07
41947;BME280;27638;42.184;24.848;2022-11-15T04:53:48;100492.72;;;10.14;86.00
41947;BME280;27638;42.184;24.848;2022-11-15T04:56:14;100497.31;;;10.02;85.84
41947;BME280;27638;42.184;24.848;2022-11-15T04:58:39;100492.44;;;9.88;86.87
41947;BME280;27638;42.184;24.848;2022-11-15T05:01:13;100496.47;;;10.02;85.91
41947;BME280;27638;42.184;24.848;2022-11-15T05:03:42;100482.13;;;10.04;85.97
41947;BME280;27638;42.184;24.848;2022-11-15T05:06:27;100494.53;;;10.04;85.95
41947;BME280;27638;42.184;24.848;2022-11-15T05:08:53;100488.94;;;10.16;85.76
41947;BME280;27638;42.184;24.848;2022-11-15T05:11:19;100487.13;;;10.17;85.87
41947;BME280;27638;42.184;24.848;2022-11-15T05:13:45;100486.75;;;10.21;85.53
41947;BME280;27638;42.184;24.848;2022-11-15T05:16:12;100498.84;;;10.05;86.46
41947;BME280;27638;42.184;24.848;2022-11-15T05:18:38;100492.56;;;10.06;85.98
41947;BME280;27638;42.184;24.848;2022-11-15T05:21:09;100488.81;;;10.18;85.20
41947;BME280;27638;42.184;24.848;2022-11-15T05:23:35;100494.53;;;10.13;86.23
41947;BME280;27638;42.184;24.848;2022-11-15T05:26:02;100489.91;;;10.15;86.15
41947;BME280;27638;42.184;24.848;2022-11-15T05:28:28;100487.28;;;10.15;85.63
41947;BME280;27638;42.184;24.848;2022-11-15T05:31:03;100488.66;;;10.19;85.69
41947;BME280;27638;42.184;24.848;2022-11-15T05:33:30;100483.94;;;10.23;85.26
41947;BME280;27638;42.184;24.848;2022-11-15T05:36:00;100481.16;;;10.15;85.41
41947;BME280;27638;42.184;24.848;2022-11-15T05:38:27;100492.03;;;10.21;84.83
41947;BME280;27638;42.184;24.848;2022-11-15T05:40:53;100494.69;;;10.21;84.65
41947;BME280;27638;42.184;24.848;2022-11-15T05:43:19;100487.56;;;10.22;85.11
41947;BME280;27638;42.184;24.848;2022-11-15T05:45:45;100489.78;;;10.17;85.83
41947;BME280;27638;42.184;24.848;2022-11-15T05:48:11;100495.22;;;10.25;85.79
41947;BME280;27638;42.184;24.848;2022-11-15T05:50:38;100495.63;;;10.30;85.33
41947;BME280;27638;42.184;24.848;2022-11-15T05:53:06;100489.50;;;10.30;85.00
41947;BME280;27638;42.184;24.848;2022-11-15T05:55:31;100496.06;;;10.35;85.54
41947;BME280;27638;42.184;24.848;2022-11-15T05:57:57;100500.09;;;10.30;85.13
41947;BME280;27638;42.184;24.848;2022-11-15T06:00:22;100499.13;;;10.21;85.90
41947;BME280;27638;42.184;24.848;2022-11-15T06:02:48;100510.69;;;10.30;85.34
41947;BME280;27638;42.184;24.848;2022-11-15T06:05:13;100516.38;;;10.35;85.63
41947;BME280;27638;42.184;24.848;2022-11-15T06:07:39;100515.84;;;10.31;85.89
41947;BME280;27638;42.184;24.848;2022-11-15T06:10:05;100515.72;;;10.23;86.19
41947;BME280;27638;42.184;24.848;2022-11-15T06:12:30;100511.66;;;10.19;86.37
41947;BME280;27638;42.184;24.848;2022-11-15T06:14:56;100503.59;;;10.20;86.16
41947;BME280;27638;42.184;24.848;2022-11-15T06:17:21;100479.06;;;9.99;86.80
41947;BME280;27638;42.184;24.848;2022-11-15T06:19:46;100510.81;;;10.18;87.12
41947;BME280;27638;42.184;24.848;2022-11-15T06:22:12;100505.13;;;10.33;86.55
41947;BME280;27638;42.184;24.848;2022-11-15T06:24:37;100514.03;;;10.51;86.61
41947;BME280;27638;42.184;24.848;2022-11-15T06:27:03;100512.03;;;10.63;85.70
41947;BME280;27638;42.184;24.848;2022-11-15T06:29:28;100512.56;;;10.76;85.10
41947;BME280;27638;42.184;24.848;2022-11-15T06:31:54;100500.59;;;10.72;84.57
41947;BME280;27638;42.184;24.848;2022-11-15T06:34:19;100507.69;;;10.71;85.50
41947;BME280;27638;42.184;24.848;2022-11-15T06:36:44;100501.69;;;10.79;85.24
41947;BME280;27638;42.184;24.848;2022-11-15T06:39:10;100517.72;;;10.77;84.75
41947;BME280;27638;42.184;24.848;2022-11-15T06:41:36;100501.09;;;10.85;84.63
41947;BME280;27638;42.184;24.848;2022-11-15T06:44:02;100511.28;;;10.80;84.87
41947;BME280;27638;42.184;24.848;2022-11-15T06:46:28;100511.47;;;10.69;84.52
41947;BME280;27638;42.184;24.848;2022-11-15T06:48:54;100505.31;;;10.78;84.52
41947;BME280;27638;42.184;24.848;2022-11-15T06:51:19;100516.88;;;10.77;83.87
41947;BME280;27638;42.184;24.848;2022-11-15T06:53:45;100510.72;;;10.86;83.53
41947;BME280;27638;42.184;24.848;2022-11-15T06:56:10;100509.25;;;11.01;82.75
41947;BME280;27638;42.184;24.848;2022-11-15T06:58:36;100511.38;;;10.98;83.36
41947;BME280;27638;42.184;24.848;2022-11-15T07:01:04;100509.69;;;10.97;82.45
41947;BME280;27638;42.184;24.848;2022-11-15T07:03:30;100514.56;;;11.01;82.56
41947;BME280;27638;42.184;24.848;2022-11-15T07:05:57;100506.75;;;11.00;83.17
41947;BME280;27638;42.184;24.848;2022-11-15T07:08:23;100507.34;;;10.94;83.20
41947;BME280;27638;42.184;24.848;2022-11-15T07:10:49;100500.56;;;11.09;81.90
41947;BME280;27638;42.184;24.848;2022-11-15T07:13:14;100497.66;;;11.30;81.94
41947;BME280;27638;42.184;24.848;2022-11-15T07:15:40;100496.78;;;11.39;82.08
41947;BME280;27638;42.184;24.848;2022-11-15T07:18:05;100500.63;;;11.27;81.18
41947;BME280;27638;42.184;24.848;2022-11-15T07:20:31;100498.16;;;11.43;80.74
41947;BME280;27638;42.184;24.848;2022-11-15T07:23:03;100486.69;;;11.25;80.61
41947;BME280;27638;42.184;24.848;2022-11-15T07:25:29;100481.97;;;11.18;81.32
41947;BME280;27638;42.184;24.848;2022-11-15T07:27:55;100496.25;;;11.35;80.97
41947;BME280;27638;42.184;24.848;2022-11-15T07:30:21;100489.47;;;11.50;80.05
41947;BME280;27638;42.184;24.848;2022-11-15T07:32:47;100475.25;;;11.69;79.93
41947;BME280;27638;42.184;24.848;2022-11-15T07:35:12;100493.78;;;11.79;78.84
41947;BME280;27638;42.184;24.848;2022-11-15T07:37:38;100490.97;;;11.80;77.80
41947;BME280;27638;42.184;24.848;2022-11-15T07:40:04;100487.19;;;11.83;77.31
41947;BME280;27638;42.184;24.848;2022-11-15T07:42:31;100483.16;;;11.97;77.37
41947;BME280;27638;42.184;24.848;2022-11-15T07:45:15;100489.88;;;12.09;77.06
41947;BME280;27638;42.184;24.848;2022-11-15T07:47:40;100485.53;;;12.26;77.26
41947;BME280;27638;42.184;24.848;2022-11-15T07:50:06;100482.72;;;12.27;77.09
41947;BME280;27638;42.184;24.848;2022-11-15T07:52:31;100486.16;;;12.45;76.00
41947;BME280;27638;42.184;24.848;2022-11-15T07:54:57;100485.06;;;12.30;76.15
41947;BME280;27638;42.184;24.848;2022-11-15T07:57:22;100470.81;;;12.31;76.17
41947;BME280;27638;42.184;24.848;2022-11-15T07:59:47;100482.94;;;12.34;74.79
41947;BME280;27638;42.184;24.848;2022-11-15T08:02:13;100478.78;;;12.31;75.02
41947;BME280;27638;42.184;24.848;2022-11-15T08:04:38;100483.97;;;12.59;75.32
41947;BME280;27638;42.184;24.848;2022-11-15T08:07:04;100484.34;;;12.20;74.85
41947;BME280;27638;42.184;24.848;2022-11-15T08:09:29;100491.84;;;12.07;76.05
41947;BME280;27638;42.184;24.848;2022-11-15T08:11:55;100479.88;;;12.46;75.60
41947;BME280;27638;42.184;24.848;2022-11-15T08:14:20;100485.13;;;12.38;74.52
41947;BME280;27638;42.184;24.848;2022-11-15T08:16:47;100472.88;;;12.63;73.18
41947;BME280;27638;42.184;24.848;2022-11-15T08:19:12;100476.13;;;12.83;73.32
41947;BME280;27638;42.184;24.848;2022-11-15T08:21:38;100474.88;;;12.69;72.56
41947;BME280;27638;42.184;24.848;2022-11-15T08:24:03;100475.47;;;12.89;72.51
41947;BME280;27638;42.184;24.848;2022-11-15T08:26:29;100473.56;;;13.07;72.25
41947;BME280;27638;42.184;24.848;2022-11-15T08:28:55;100475.91;;;13.10;71.68
41947;BME280;27638;42.184;24.848;2022-11-15T08:31:20;100455.28;;;13.04;71.87
41947;BME280;27638;42.184;24.848;2022-11-15T08:33:46;100463.25;;;13.04;71.00
41947;BME280;27638;42.184;24.848;2022-11-15T08:36:14;100458.19;;;13.19;71.21
41947;BME280;27638;42.184;24.848;2022-11-15T08:38:40;100466.38;;;13.34;71.06
41947;BME280;27638;42.184;24.848;2022-11-15T08:41:05;100461.56;;;13.37;70.67
41947;BME280;27638;42.184;24.848;2022-11-15T08:43:31;100469.22;;;13.49;71.49
41947;BME280;27638;42.184;24.848;2022-11-15T08:45:57;100458.25;;;13.43;71.75
41947;BME280;27638;42.184;24.848;2022-11-15T08:48:23;100466.53;;;13.32;71.19
41947;BME280;27638;42.184;24.848;2022-11-15T08:50:48;100454.84;;;13.17;72.45
41947;BME280;27638;42.184;24.848;2022-11-15T08:53:13;100454.28;;;13.05;72.71
41947;BME280;27638;42.184;24.848;2022-11-15T08:55:40;100450.25;;;13.35;72.62
41947;BME280;27638;42.184;24.848;2022-11-15T08:58:06;100445.63;;;13.46;71.28
41947;BME280;27638;42.184;24.848;2022-11-15T09:00:32;100448.75;;;13.33;71.97
41947;BME280;27638;42.184;24.848;2022-11-15T09:02:58;100429.81;;;13.36;71.39
41947;BME280;27638;42.184;24.848;2022-11-15T09:05:25;100435.28;;;13.34;72.39
41947;BME280;27638;42.184;24.848;2022-11-15T09:07:53;100432.50;;;13.52;71.66
41947;BME280;27638;42.184;24.848;2022-11-15T09:10:20;100418.06;;;13.63;71.94
41947;BME280;27638;42.184;24.848;2022-11-15T09:12:45;100425.06;;;13.88;70.06
41947;BME280;27638;42.184;24.848;2022-11-15T09:15:14;100415.41;;;13.71;70.15
41947;BME280;27638;42.184;24.848;2022-11-15T09:17:39;100411.75;;;13.88;70.00
41947;BME280;27638;42.184;24.848;2022-11-15T09:20:05;100403.44;;;13.75;72.03
41947;BME280;27638;42.184;24.848;2022-11-15T09:22:31;100398.28;;;13.73;71.85
41947;BME280;27638;42.184;24.848;2022-11-15T09:24:56;100384.63;;;13.68;72.92
41947;BME280;27638;42.184;24.848;2022-11-15T09:27:21;100380.16;;;13.61;72.66
41947;BME280;27638;42.184;24.848;2022-11-15T09:29:47;100387.28;;;13.68;73.23
41947;BME280;27638;42.184;24.848;2022-11-15T09:32:12;100385.28;;;13.79;72.30
41947;BME280;27638;42.184;24.848;2022-11-15T09:34:38;100382.81;;;13.85;72.49
41947;BME280;27638;42.184;24.848;2022-11-15T09:37:03;100379.28;;;13.93;72.87
41947;BME280;27638;42.184;24.848;2022-11-15T09:39:29;100377.81;;;13.74;73.72
41947;BME280;27638;42.184;24.848;2022-11-15T09:42:04;100370.63;;;13.99;73.49
41947;BME280;27638;42.184;24.848;2022-11-15T09:44:47;100368.00;;;13.83;74.21
41947;BME280;27638;42.184;24.848;2022-11-15T09:50:09;100360.69;;;13.77;75.46
41947;BME280;27638;42.184;24.848;2022-11-15T09:52:36;100358.03;;;13.68;76.91
41947;BME280;27638;42.184;24.848;2022-11-15T09:55:05;100352.88;;;13.67;75.72
41947;BME280;27638;42.184;24.848;2022-11-15T09:57:39;100346.72;;;13.66;76.11
41947;BME280;27638;42.184;24.848;2022-11-15T10:00:38;100343.06;;;13.67;76.33
41947;BME280;27638;42.184;24.848;2022-11-15T10:05:50;100336.91;;;13.67;75.80
41947;BME280;27638;42.184;24.848;2022-11-15T10:10:59;100321.25;;;13.72;75.35
41947;BME280;27638;42.184;24.848;2022-11-15T10:13:26;100322.41;;;13.78;75.15
41947;BME280;27638;42.184;24.848;2022-11-15T10:16:00;100322.84;;;14.05;73.46
41947;BME280;27638;42.184;24.848;2022-11-15T10:19:29;100312.09;;;14.38;71.98
41947;BME280;27638;42.184;24.848;2022-11-15T10:24:24;100308.00;;;14.19;72.14
41947;BME280;27638;42.184;24.848;2022-11-15T10:26:50;100302.00;;;14.25;70.47
41947;BME280;27638;42.184;24.848;2022-11-15T10:29:20;100308.97;;;14.26;71.69
41947;BME280;27638;42.184;24.848;2022-11-15T10:31:46;100295.25;;;13.98;72.67
41947;BME280;27638;42.184;24.848;2022-11-15T10:34:14;100296.25;;;13.97;71.69
41947;BME280;27638;42.184;24.848;2022-11-15T10:37:05;100291.59;;;13.91;72.05
41947;BME280;27638;42.184;24.848;2022-11-15T10:39:30;100293.41;;;13.99;72.39
41947;BME280;27638;42.184;24.848;2022-11-15T10:41:55;100289.66;;;13.77;72.54
41947;BME280;27638;42.184;24.848;2022-11-15T10:44:28;100291.63;;;13.83;72.53
41947;BME280;27638;42.184;24.848;2022-11-15T10:49:21;100280.13;;;13.91;71.26
41947;BME280;27638;42.184;24.848;2022-11-15T10:52:20;100279.56;;;14.12;71.03
41947;BME280;27638;42.184;24.848;2022-11-15T10:55:38;100268.56;;;14.15;70.30
41947;BME280;27638;42.184;24.848;2022-11-15T10:58:05;100261.28;;;14.09;69.78
41947;BME280;27638;42.184;24.848;2022-11-15T11:00:37;100260.63;;;13.98;68.86
41947;BME280;27638;42.184;24.848;2022-11-15T11:03:29;100253.22;;;14.25;68.95
41947;BME280;27638;42.184;24.848;2022-11-15T11:06:16;100257.81;;;14.00;69.18
41947;BME280;27638;42.184;24.848;2022-11-15T11:09:04;100248.13;;;14.07;70.01
41947;BME280;27638;42.184;24.848;2022-11-15T11:11:51;100241.88;;;14.31;68.46
41947;BME280;27638;42.184;24.848;2022-11-15T11:14:22;100235.84;;;14.37;68.66
41947;BME280;27638;42.184;24.848;2022-11-15T11:19:55;100233.53;;;14.34;69.13
41947;BME280;27638;42.184;24.848;2022-11-15T11:22:39;100232.78;;;14.17;71.32
41947;BME280;27638;42.184;24.848;2022-11-15T11:31:00;100211.16;;;14.12;70.23
41947;BME280;27638;42.184;24.848;2022-11-15T11:33:34;100209.25;;;14.29;69.84
41947;BME280;27638;42.184;24.848;2022-11-15T11:41:19;100197.88;;;14.35;70.08
41947;BME280;27638;42.184;24.848;2022-11-15T11:46:27;100184.69;;;14.42;69.93
41947;BME280;27638;42.184;24.848;2022-11-15T11:49:23;100174.38;;;14.47;70.16
41947;BME280;27638;42.184;24.848;2022-11-15T11:55:05;100181.00;;;14.20;73.35
41947;BME280;27638;42.184;24.848;2022-11-15T12:00:21;100169.28;;;14.29;75.89
41947;BME280;27638;42.184;24.848;2022-11-15T12:11:50;100163.19;;;14.20;74.95
41947;BME280;27638;42.184;24.848;2022-11-15T12:14:24;100146.81;;;14.00;73.44
41947;BME280;27638;42.184;24.848;2022-11-15T12:16:50;100153.44;;;14.04;74.48
41947;BME280;27638;42.184;24.848;2022-11-15T12:19:15;100152.09;;;14.09;74.46
41947;BME280;27638;42.184;24.848;2022-11-15T12:21:46;100148.59;;;14.08;73.62
41947;BME280;27638;42.184;24.848;2022-11-15T12:24:24;100139.50;;;14.25;73.32
41947;BME280;27638;42.184;24.848;2022-11-15T12:27:00;100145.31;;;13.98;74.02
41947;BME280;27638;42.184;24.848;2022-11-15T12:29:33;100068.47;;;13.64;74.17
41947;BME280;27638;42.184;24.848;2022-11-15T12:32:00;100139.09;;;14.14;73.53
41947;BME280;27638;42.184;24.848;2022-11-15T12:34:29;100133.22;;;14.18;73.18
41947;BME280;27638;42.184;24.848;2022-11-15T12:37:00;100131.09;;;13.83;74.63
41947;BME280;27638;42.184;24.848;2022-11-15T12:47:26;100126.38;;;13.54;76.19
41947;BME280;27638;42.184;24.848;2022-11-15T12:49:52;100120.03;;;13.63;74.35
41947;BME280;27638;42.184;24.848;2022-11-15T12:52:19;100111.34;;;13.69;74.14
41947;BME280;27638;42.184;24.848;2022-11-15T12:54:56;100113.22;;;13.60;74.50
41947;BME280;27638;42.184;24.848;2022-11-15T12:57:28;100114.25;;;13.43;75.20
41947;BME280;27638;42.184;24.848;2022-11-15T12:59:58;100116.22;;;13.57;74.35
41947;BME280;27638;42.184;24.848;2022-11-15T13:02:44;100108.91;;;13.51;75.96
41947;BME280;27638;42.184;24.848;2022-11-15T13:15:30;100090.16;;;13.53;74.13
41947;BME280;27638;42.184;24.848;2022-11-15T13:17:57;100086.97;;;13.49;74.66
41947;BME280;27638;42.184;24.848;2022-11-15T13:20:26;100093.28;;;13.56;75.08
41947;BME280;27638;42.184;24.848;2022-11-15T13:28:03;100077.84;;;13.43;75.53
41947;BME280;27638;42.184;24.848;2022-11-15T13:30:35;100081.38;;;13.36;75.20
41947;BME280;27638;42.184;24.848;2022-11-15T13:33:13;100064.56;;;13.35;75.40
41947;BME280;27638;42.184;24.848;2022-11-15T13:35:41;100065.22;;;13.37;75.60
41947;BME280;27638;42.184;24.848;2022-11-15T13:38:18;100078.41;;;13.31;76.75
41947;BME280;27638;42.184;24.848;2022-11-15T13:40:45;100071.50;;;12.89;77.59
41947;BME280;27638;42.184;24.848;2022-11-15T13:46:05;100065.19;;;12.74;79.51
41947;BME280;27638;42.184;24.848;2022-11-15T13:48:30;100069.66;;;12.90;79.32
41947;BME280;27638;42.184;24.848;2022-11-15T13:50:57;100073.00;;;12.84;79.98
41947;BME280;27638;42.184;24.848;2022-11-15T13:53:23;100072.97;;;12.92;79.33
41947;BME280;27638;42.184;24.848;2022-11-15T13:55:49;100071.00;;;12.77;80.61
41947;BME280;27638;42.184;24.848;2022-11-15T13:58:16;100065.69;;;12.77;80.82
41947;BME280;27638;42.184;24.848;2022-11-15T14:00:43;100064.19;;;12.83;80.46
41947;BME280;27638;42.184;24.848;2022-11-15T14:05:39;100062.41;;;12.51;81.38
41947;BME280;27638;42.184;24.848;2022-11-15T14:08:23;100057.75;;;12.53;80.63
41947;BME280;27638;42.184;24.848;2022-11-15T14:11:17;100060.25;;;12.55;81.49
41947;BME280;27638;42.184;24.848;2022-11-15T14:16:45;100055.59;;;12.57;81.24
41947;BME280;27638;42.184;24.848;2022-11-15T14:19:33;100051.75;;;12.67;80.67
41947;BME280;27638;42.184;24.848;2022-11-15T14:22:31;100054.09;;;12.62;81.05
41947;BME280;27638;42.184;24.848;2022-11-15T14:25:16;100051.13;;;12.49;80.90
41947;BME280;27638;42.184;24.848;2022-11-15T14:28:31;100043.63;;;12.44;81.46
41947;BME280;27638;42.184;24.848;2022-11-15T14:30:30;100046.63;;;12.50;81.23
41947;BME280;27638;42.184;24.848;2022-11-15T14:32:55;100054.25;;;12.53;80.79
41947;BME280;27638;42.184;24.848;2022-11-15T14:35:22;100048.13;;;12.60;80.98